createdAt,value
2023-03-01T00:00:36.845Z,72.50
2023-03-01T00:01:36.348Z,72.61
2023-03-01T00:02:34.439Z,72.61
2023-03-01T00:03:35.904Z,72.64
2023-03-01T00:04:35.882Z,72.66
2023-03-01T00:05:36.493Z,72.73
2023-03-01T00:06:35.689Z,72.70
2023-03-01T00:07:34.928Z,72.79
2023-03-01T00:08:35.623Z,72.82
2023-03-01T00:10:35.674Z,72.73
2023-03-01T00:11:34.966Z,72.78
2023-03-01T00:12:35.843Z,72.92
2023-03-01T00:13:35.851Z,72.97
2023-03-01T00:14:35.619Z,73.03
2023-03-01T00:15:35.649Z,73.00
2023-03-01T00:16:35.279Z,72.99
2023-03-01T00:17:34.787Z,73.01
2023-03-01T00:18:35.379Z,73.12
2023-03-01T00:19:34.750Z,73.33
2023-03-01T00:20:35.633Z,73.38
2023-03-01T00:21:35.938Z,73.33
2023-03-01T00:22:34.873Z,73.26
2023-03-01T00:23:34.665Z,73.25
2023-03-01T00:24:35.028Z,73.18
2023-03-01T00:25:34.869Z,73.15
2023-03-01T00:26:35.420Z,73.19
2023-03-01T00:27:34.793Z,73.16
2023-03-01T00:28:34.649Z,73.09
2023-03-01T00:29:34.682Z,73.04
2023-03-01T00:30:35.625Z,73.08
2023-03-01T00:31:34.491Z,73.10
2023-03-01T00:32:34.628Z,73.03
2023-03-01T00:33:34.893Z,73.01
2023-03-01T00:34:34.363Z,73.08
2023-03-01T00:35:35.509Z,73.08
2023-03-01T00:36:35.111Z,73.08
2023-03-01T00:37:34.285Z,73.12
2023-03-01T00:38:34.935Z,73.26
2023-03-01T00:39:34.940Z,73.33
2023-03-01T00:40:35.376Z,73.31
2023-03-01T00:41:35.549Z,73.32
2023-03-01T00:42:34.634Z,73.35
2023-03-01T00:43:35.296Z,73.39
2023-03-01T00:44:34.230Z,73.47
2023-03-01T00:45:35.229Z,73.53
2023-03-01T00:46:35.364Z,73.61
2023-03-01T00:47:34.931Z,73.56
2023-03-01T00:48:34.652Z,73.56
2023-03-01T00:49:35.159Z,73.59
2023-03-01T00:50:34.749Z,73.59
2023-03-01T00:51:35.180Z,73.63
2023-03-01T00:52:34.085Z,73.73
2023-03-01T00:53:34.655Z,73.65
2023-03-01T00:54:34.810Z,73.69
2023-03-01T00:55:35.294Z,73.71
2023-03-01T00:56:34.801Z,73.72
2023-03-01T00:57:35.446Z,73.69
2023-03-01T00:58:34.290Z,73.69
2023-03-01T00:59:34.535Z,73.72
2023-03-01T01:00:36.359Z,73.80
2023-03-01T01:01:39.592Z,73.83
2023-03-01T01:02:35.311Z,73.88
2023-03-01T01:03:34.476Z,73.89
2023-03-01T01:04:34.746Z,73.87
2023-03-01T01:05:35.422Z,73.78
2023-03-01T01:06:34.743Z,73.88
2023-03-01T01:07:35.133Z,73.95
2023-03-01T01:08:34.464Z,74.03
2023-03-01T01:09:34.094Z,74.04
2023-03-01T01:10:34.612Z,74.05
2023-03-01T01:11:34.521Z,74.13
2023-03-01T01:12:35.007Z,74.19
2023-03-01T01:13:34.202Z,74.15
2023-03-01T01:14:34.897Z,74.18
2023-03-01T01:15:35.088Z,74.23
2023-03-01T01:16:34.947Z,74.12
2023-03-01T01:17:35.249Z,74.24
2023-03-01T01:18:34.060Z,74.23
2023-03-01T01:19:34.533Z,74.23
2023-03-01T01:20:35.187Z,74.15
2023-03-01T01:21:34.562Z,74.20
2023-03-01T01:22:34.715Z,74.29
2023-03-01T01:23:34.974Z,74.25
2023-03-01T01:24:35.099Z,74.21
2023-03-01T01:25:34.952Z,74.27
2023-03-01T01:26:35.418Z,74.39
2023-03-01T01:27:34.113Z,74.33
2023-03-01T01:28:34.454Z,74.38
2023-03-01T01:29:34.142Z,74.42
2023-03-01T01:30:34.807Z,74.38
2023-03-01T01:31:34.716Z,74.39
2023-03-01T01:32:35.451Z,74.43
2023-03-01T01:33:34.913Z,74.37
2023-03-01T01:34:34.393Z,74.40
2023-03-01T01:35:34.867Z,74.40
2023-03-01T01:36:34.688Z,74.43
2023-03-01T01:37:35.216Z,74.49
2023-03-01T01:38:34.360Z,74.57
2023-03-01T01:39:34.494Z,74.56
2023-03-01T01:40:35.429Z,74.57
2023-03-01T01:41:34.618Z,74.65
2023-03-01T01:42:35.010Z,74.75
2023-03-01T01:43:34.351Z,74.75
2023-03-01T01:44:34.754Z,74.83
2023-03-01T01:45:34.671Z,74.80
2023-03-01T01:46:34.958Z,74.80
2023-03-01T01:47:34.702Z,74.83
2023-03-01T01:48:35.187Z,74.77
2023-03-01T01:49:34.296Z,74.69
2023-03-01T01:50:34.016Z,74.76
2023-03-01T01:51:34.518Z,74.77
2023-03-01T01:52:34.795Z,74.70
2023-03-01T01:53:35.093Z,74.68
2023-03-01T01:54:34.345Z,74.71
2023-03-01T01:55:34.426Z,74.76
2023-03-01T01:56:33.783Z,74.80
2023-03-01T01:57:34.186Z,74.83
2023-03-01T01:58:34.504Z,74.81
2023-03-01T01:59:35.017Z,74.70
2023-03-01T02:00:36.079Z,74.75
2023-03-01T02:01:50.537Z,74.78
2023-03-01T02:02:35.899Z,74.76
2023-03-01T02:03:35.818Z,74.80
2023-03-01T02:04:35.188Z,74.79
2023-03-01T02:05:34.672Z,74.73
2023-03-01T02:06:34.746Z,74.69
2023-03-01T02:07:35.176Z,74.74
2023-03-01T02:08:35.074Z,74.84
2023-03-01T02:09:34.683Z,74.80
2023-03-01T02:10:34.541Z,74.76
2023-03-01T02:11:34.488Z,74.80
2023-03-01T02:12:35.592Z,74.83
2023-03-01T02:13:35.543Z,74.86
2023-03-01T02:14:34.938Z,74.92
2023-03-01T02:15:36.125Z,74.94
2023-03-01T02:16:34.717Z,74.99
2023-03-01T02:17:35.000Z,75.03
2023-03-01T02:18:34.765Z,74.96
2023-03-01T02:19:42.420Z,74.91
2023-03-01T02:20:34.800Z,74.98
2023-03-01T02:21:35.069Z,75.07
2023-03-01T02:22:34.667Z,75.09
2023-03-01T02:23:34.662Z,75.07
2023-03-01T02:24:34.470Z,75.09
2023-03-01T02:25:42.809Z,75.10
2023-03-01T02:26:35.493Z,75.17
2023-03-01T02:27:34.637Z,75.24
2023-03-01T02:28:34.688Z,75.17
2023-03-01T02:29:35.104Z,75.22
2023-03-01T02:30:34.591Z,75.23
2023-03-01T02:31:48.674Z,75.16
2023-03-01T02:32:34.952Z,75.12
2023-03-01T02:33:35.151Z,75.11
2023-03-01T02:34:34.619Z,75.03
2023-03-01T02:35:48.923Z,75.00
2023-03-01T02:36:34.701Z,75.01
2023-03-01T02:37:35.386Z,75.11
2023-03-01T02:38:35.142Z,75.17
2023-03-01T02:39:34.836Z,75.12
2023-03-01T02:40:34.809Z,75.11
2023-03-01T02:41:35.535Z,75.30
2023-03-01T02:42:35.113Z,75.36
2023-03-01T02:43:35.339Z,75.41
2023-03-01T02:44:35.163Z,75.43
2023-03-01T02:45:35.096Z,75.40
2023-03-01T02:46:35.123Z,75.37
2023-03-01T02:47:34.808Z,75.38
2023-03-01T02:48:34.940Z,75.44
2023-03-01T02:49:35.801Z,75.44
2023-03-01T02:50:35.015Z,75.50
2023-03-01T02:51:35.094Z,75.47
2023-03-01T02:52:34.456Z,75.43
2023-03-01T02:53:34.502Z,75.40
2023-03-01T02:54:35.066Z,75.40
2023-03-01T02:55:34.833Z,75.36
2023-03-01T02:56:34.853Z,75.32
2023-03-01T02:57:34.733Z,75.41
2023-03-01T02:58:35.504Z,75.43
2023-03-01T02:59:36.134Z,75.49
2023-03-01T03:00:37.432Z,75.51
2023-03-01T03:01:35.757Z,75.40
2023-03-01T03:02:35.101Z,75.44
2023-03-01T03:03:35.148Z,75.48
2023-03-01T03:04:34.342Z,75.40
2023-03-01T03:05:35.185Z,75.35
2023-03-01T03:06:34.337Z,75.39
2023-03-01T03:07:34.051Z,75.44
2023-03-01T03:08:34.428Z,75.49
2023-03-01T03:09:35.161Z,75.59
2023-03-01T03:10:34.756Z,75.57
2023-03-01T03:11:34.736Z,75.48
2023-03-01T03:12:34.021Z,75.57
2023-03-01T03:13:34.538Z,75.66
2023-03-01T03:14:34.157Z,75.67
2023-03-01T03:15:34.246Z,75.69
2023-03-01T03:16:34.543Z,75.64
2023-03-01T03:17:34.512Z,75.59
2023-03-01T03:18:35.411Z,75.57
2023-03-01T03:19:34.286Z,75.67
2023-03-01T03:20:35.757Z,75.71
2023-03-01T03:21:35.809Z,75.67
2023-03-01T03:22:35.896Z,75.63
2023-03-01T03:23:35.185Z,75.58
2023-03-01T03:24:34.579Z,75.56
2023-03-01T03:25:36.022Z,75.65
2023-03-01T03:26:34.760Z,75.66
2023-03-01T03:27:34.491Z,75.64
2023-03-01T03:28:34.664Z,75.68
2023-03-01T03:29:34.858Z,75.66
2023-03-01T03:30:35.686Z,75.75
2023-03-01T03:31:35.241Z,75.84
2023-03-01T03:32:35.728Z,75.92
2023-03-01T03:33:35.634Z,75.95
2023-03-01T03:34:35.524Z,76.01
2023-03-01T03:35:34.848Z,76.03
2023-03-01T03:36:34.824Z,76.04
2023-03-01T03:37:34.615Z,75.97
2023-03-01T03:38:34.830Z,75.93
2023-03-01T03:39:34.596Z,75.86
2023-03-01T03:40:34.481Z,75.92
2023-03-01T03:41:34.711Z,76.02
2023-03-01T03:42:34.761Z,76.07
2023-03-01T03:43:35.190Z,76.05
2023-03-01T03:44:34.590Z,76.10
2023-03-01T03:45:34.652Z,76.18
2023-03-01T03:46:35.046Z,76.18
2023-03-01T03:47:34.722Z,76.17
2023-03-01T03:48:34.928Z,76.20
2023-03-01T03:49:35.655Z,76.16
2023-03-01T03:50:35.260Z,76.26
2023-03-01T03:51:33.612Z,76.30
2023-03-01T03:52:34.529Z,76.25
2023-03-01T03:53:34.267Z,76.26
2023-03-01T03:54:34.753Z,76.29
2023-03-01T03:55:35.737Z,76.30
2023-03-01T03:56:34.722Z,76.23
2023-03-01T03:57:35.054Z,76.19
2023-03-01T03:58:34.958Z,76.15
2023-03-01T03:59:35.770Z,76.15
2023-03-01T04:00:37.065Z,76.13
2023-03-01T04:01:35.581Z,76.20
2023-03-01T04:02:35.189Z,76.25
2023-03-01T04:03:35.039Z,76.31
2023-03-01T04:04:34.847Z,76.44
2023-03-01T04:05:34.998Z,76.52
2023-03-01T04:06:35.110Z,76.52
2023-03-01T04:07:35.064Z,76.49
2023-03-01T04:08:34.541Z,76.41
2023-03-01T04:09:34.880Z,76.32
2023-03-01T04:10:35.722Z,76.29
2023-03-01T04:11:34.156Z,76.35
2023-03-01T04:12:34.155Z,76.43
2023-03-01T04:13:34.581Z,76.52
2023-03-01T04:14:34.705Z,76.58
2023-03-01T04:15:35.830Z,76.48
2023-03-01T04:16:44.137Z,76.44
2023-03-01T04:17:34.224Z,76.50
2023-03-01T04:18:35.357Z,76.51
2023-03-01T04:19:34.089Z,76.47
2023-03-01T04:20:34.816Z,76.47
2023-03-01T04:21:34.844Z,76.48
2023-03-01T04:22:34.075Z,76.48
2023-03-01T04:23:34.670Z,76.48
2023-03-01T04:24:34.440Z,76.48
2023-03-01T04:25:34.974Z,76.57
2023-03-01T04:26:34.786Z,76.63
2023-03-01T04:27:34.547Z,76.65
2023-03-01T04:28:35.031Z,76.63
2023-03-01T04:29:34.403Z,76.53
2023-03-01T04:30:34.672Z,76.50
2023-03-01T04:31:35.261Z,76.51
2023-03-01T04:32:34.514Z,76.53
2023-03-01T04:33:35.421Z,76.61
2023-03-01T04:34:35.143Z,76.66
2023-03-01T04:35:34.824Z,76.63
2023-03-01T04:36:36.214Z,76.62
2023-03-01T04:37:34.877Z,76.64
2023-03-01T04:38:35.453Z,76.73
2023-03-01T04:39:34.999Z,76.67
2023-03-01T04:40:34.784Z,76.67
2023-03-01T04:41:35.300Z,76.73
2023-03-01T04:42:35.571Z,76.70
2023-03-01T04:43:36.084Z,76.66
2023-03-01T04:44:35.411Z,76.60
2023-03-01T04:45:35.298Z,76.56
2023-03-01T04:46:40.140Z,76.62
2023-03-01T04:47:34.591Z,76.64
2023-03-01T04:48:57.192Z,76.62
2023-03-01T04:49:34.567Z,76.66
2023-03-01T04:50:35.305Z,76.70
2023-03-01T04:51:34.847Z,76.66
2023-03-01T04:52:35.277Z,76.65
2023-03-01T04:53:35.179Z,76.68
2023-03-01T04:54:34.684Z,76.68
2023-03-01T04:55:35.447Z,76.71
2023-03-01T04:56:35.057Z,76.80
2023-03-01T04:57:34.649Z,76.83
2023-03-01T04:58:34.449Z,76.88
2023-03-01T04:59:34.600Z,76.78
2023-03-01T05:00:37.280Z,76.74
2023-03-01T05:01:35.759Z,76.67
2023-03-01T05:02:36.045Z,76.71
2023-03-01T05:03:35.044Z,76.81
2023-03-01T05:04:35.439Z,76.77
2023-03-01T05:05:36.171Z,76.72
2023-03-01T05:06:36.413Z,76.67
2023-03-01T05:07:35.462Z,76.59
2023-03-01T05:08:34.979Z,76.61
2023-03-01T05:09:34.686Z,76.75
2023-03-01T05:10:35.005Z,76.86
2023-03-01T05:11:35.196Z,76.84
2023-03-01T05:12:34.479Z,76.76
2023-03-01T05:13:35.260Z,76.64
2023-03-01T05:14:34.500Z,76.59
2023-03-01T05:15:36.016Z,76.70
2023-03-01T05:16:36.407Z,76.82
2023-03-01T05:17:35.334Z,76.89
2023-03-01T05:18:35.434Z,76.93
2023-03-01T05:19:35.462Z,76.93
2023-03-01T05:20:35.652Z,76.84
2023-03-01T05:21:35.391Z,76.83
2023-03-01T05:22:34.883Z,76.86
2023-03-01T05:23:35.042Z,76.85
2023-03-01T05:24:34.976Z,76.85
2023-03-01T05:25:36.059Z,76.87
2023-03-01T05:26:42.323Z,76.90
2023-03-01T05:27:34.657Z,76.90
2023-03-01T05:28:35.137Z,76.98
2023-03-01T05:29:34.430Z,77.05
2023-03-01T05:30:35.261Z,77.12
2023-03-01T05:31:34.884Z,77.09
2023-03-01T05:32:34.656Z,77.05
2023-03-01T05:33:36.836Z,76.97
2023-03-01T05:34:34.719Z,76.97
2023-03-01T05:35:35.416Z,76.87
2023-03-01T05:36:35.203Z,76.77
2023-03-01T05:37:35.207Z,76.67
2023-03-01T05:38:34.725Z,76.55
2023-03-01T05:39:35.274Z,76.57
2023-03-01T05:40:35.024Z,76.61
2023-03-01T05:41:34.579Z,76.69
2023-03-01T05:42:34.744Z,76.80
2023-03-01T05:43:34.757Z,76.80
2023-03-01T05:44:34.884Z,76.70
2023-03-01T05:45:35.516Z,76.75
2023-03-01T05:46:35.591Z,76.70
2023-03-01T05:47:35.102Z,76.68
2023-03-01T05:48:34.899Z,76.69
2023-03-01T05:49:35.143Z,76.63
2023-03-01T05:50:34.897Z,76.64
2023-03-01T05:51:36.303Z,76.56
2023-03-01T05:52:35.008Z,76.57
2023-03-01T05:53:35.207Z,76.60
2023-03-01T05:54:34.794Z,76.60
2023-03-01T05:55:34.939Z,76.60
2023-03-01T05:56:34.746Z,76.68
2023-03-01T05:57:34.917Z,76.66
2023-03-01T05:58:35.132Z,76.61
2023-03-01T05:59:34.730Z,76.65
2023-03-01T06:00:36.486Z,76.68
2023-03-01T06:01:35.450Z,76.66
2023-03-01T06:02:35.204Z,76.64
2023-03-01T06:03:35.253Z,76.65
2023-03-01T06:04:34.484Z,76.62
2023-03-01T06:05:35.152Z,76.71
2023-03-01T06:06:35.003Z,76.78
2023-03-01T06:07:34.789Z,76.76
2023-03-01T06:08:34.616Z,76.77
2023-03-01T06:09:34.920Z,76.76
2023-03-01T06:10:35.610Z,76.74
2023-03-01T06:11:35.926Z,76.74
2023-03-01T06:12:36.106Z,76.76
2023-03-01T06:13:35.593Z,76.73
2023-03-01T06:14:34.586Z,76.75
2023-03-01T06:15:35.413Z,76.74
2023-03-01T06:16:35.735Z,76.74
2023-03-01T06:17:35.903Z,76.81
2023-03-01T06:18:35.704Z,76.84
2023-03-01T06:19:35.204Z,76.85
2023-03-01T06:20:35.984Z,76.93
2023-03-01T06:21:35.738Z,76.93
2023-03-01T06:22:36.344Z,76.91
2023-03-01T06:23:36.067Z,76.87
2023-03-01T06:24:34.831Z,76.81
2023-03-01T06:25:36.630Z,76.77
2023-03-01T06:26:35.468Z,76.71
2023-03-01T06:27:40.089Z,76.68
2023-03-01T06:28:35.211Z,76.72
2023-03-01T06:29:35.227Z,76.87
2023-03-01T06:30:36.075Z,77.00
2023-03-01T06:31:34.932Z,77.06
2023-03-01T06:32:35.104Z,77.02
2023-03-01T06:33:40.389Z,76.98
2023-03-01T06:34:35.347Z,76.98
2023-03-01T06:35:39.717Z,77.00
2023-03-01T06:37:35.972Z,76.94
2023-03-01T06:38:35.869Z,76.93
2023-03-01T06:39:35.488Z,76.85
2023-03-01T06:40:35.203Z,76.80
2023-03-01T06:41:35.125Z,76.71
2023-03-01T06:42:34.870Z,76.73
2023-03-01T06:43:35.185Z,76.77
2023-03-01T06:44:35.389Z,76.90
2023-03-01T06:45:35.141Z,76.92
2023-03-01T06:46:35.423Z,76.91
2023-03-01T06:47:48.908Z,76.91
2023-03-01T06:48:35.105Z,76.94
2023-03-01T06:49:34.655Z,76.94
2023-03-01T06:50:36.439Z,77.00
2023-03-01T06:51:49.596Z,77.06
2023-03-01T06:52:35.491Z,77.11
2023-03-01T06:53:35.139Z,77.11
2023-03-01T06:54:34.655Z,77.14
2023-03-01T06:55:35.369Z,77.12
2023-03-01T06:56:36.234Z,77.05
2023-03-01T06:57:35.442Z,77.06
2023-03-01T06:58:35.704Z,77.13
2023-03-01T06:59:35.728Z,77.24
2023-03-01T07:00:37.434Z,77.31
2023-03-01T07:01:37.000Z,77.34
2023-03-01T07:02:35.947Z,77.37
2023-03-01T07:03:36.561Z,77.38
2023-03-01T07:04:35.050Z,77.34
2023-03-01T07:05:40.725Z,77.45
2023-03-01T07:06:35.432Z,77.60
2023-03-01T07:07:34.848Z,77.78
2023-03-01T07:08:36.064Z,77.88
2023-03-01T07:09:35.426Z,77.92
2023-03-01T07:10:35.332Z,77.81
2023-03-01T07:11:35.783Z,77.80
2023-03-01T07:12:35.703Z,77.95
2023-03-01T07:13:34.972Z,78.04
2023-03-01T07:14:39.403Z,78.12
2023-03-01T07:15:36.083Z,78.27
2023-03-01T07:16:37.081Z,78.37
2023-03-01T07:17:35.863Z,78.34
2023-03-01T07:18:35.878Z,78.50
2023-03-01T07:19:35.793Z,78.60
2023-03-01T07:20:36.213Z,78.68
2023-03-01T07:21:34.985Z,78.77
2023-03-01T07:22:35.115Z,78.80
2023-03-01T07:23:35.848Z,78.83
2023-03-01T07:24:35.872Z,78.85
2023-03-01T07:25:35.644Z,78.91
2023-03-01T07:26:38.585Z,78.90
2023-03-01T07:27:36.345Z,79.02
2023-03-01T07:28:36.456Z,79.14
2023-03-01T07:29:35.272Z,79.11
2023-03-01T07:30:35.007Z,79.22
2023-03-01T07:31:49.248Z,79.27
2023-03-01T07:32:35.789Z,79.27
2023-03-01T07:33:36.061Z,79.34
2023-03-01T07:34:35.568Z,79.33
2023-03-01T07:35:36.501Z,79.34
2023-03-01T07:36:35.744Z,79.36
2023-03-01T07:37:36.308Z,79.38
2023-03-01T07:38:36.212Z,79.43
2023-03-01T07:39:35.929Z,79.44
2023-03-01T07:40:36.267Z,79.45
2023-03-01T07:41:36.417Z,79.55
2023-03-01T07:42:35.540Z,60
2023-03-01T07:43:36.291Z,79.65
2023-03-01T07:44:35.482Z,79.60
2023-03-01T07:45:35.783Z,79.52
2023-03-01T07:46:36.433Z,79.44
2023-03-01T07:47:35.857Z,79.37
2023-03-01T07:48:36.485Z,79.33
2023-03-01T07:49:58.997Z,79.38
2023-03-01T07:50:36.149Z,79.26
2023-03-01T07:51:36.104Z,79.26
2023-03-01T07:52:35.426Z,79.14
2023-03-01T07:53:35.872Z,79.18
2023-03-01T07:54:35.707Z,79.19
2023-03-01T07:55:36.449Z,79.13
2023-03-01T07:56:35.561Z,79.17
2023-03-01T07:57:35.860Z,79.23
2023-03-01T07:58:36.409Z,79.23
2023-03-01T07:59:35.634Z,79.35
2023-03-01T08:00:37.597Z,79.30
2023-03-01T08:01:39.763Z,79.12
2023-03-01T08:02:36.340Z,78.98
2023-03-01T08:03:35.946Z,78.92
2023-03-01T08:04:36.630Z,79.02
2023-03-01T08:05:37.327Z,79.02
2023-03-01T08:06:35.261Z,78.89
2023-03-01T08:07:36.233Z,78.84
2023-03-01T08:08:36.598Z,78.75
2023-03-01T08:10:36.152Z,78.25
2023-03-01T08:11:36.499Z,78.18
2023-03-01T08:12:35.678Z,78.21
2023-03-01T08:13:37.623Z,78.13
2023-03-01T08:14:36.807Z,78.11
2023-03-01T08:15:37.287Z,77.95
2023-03-01T08:16:36.652Z,77.76
2023-03-01T08:17:36.541Z,77.61
2023-03-01T08:18:36.908Z,77.47
2023-03-01T08:19:35.874Z,77.40
2023-03-01T08:20:36.389Z,77.28
2023-03-01T08:21:36.943Z,77.35
2023-03-01T08:22:36.985Z,77.37
2023-03-01T08:23:36.098Z,77.47
2023-03-01T08:24:35.917Z,77.41
2023-03-01T08:25:36.378Z,77.35
2023-03-01T08:26:37.041Z,77.41
2023-03-01T08:27:38.164Z,77.23
2023-03-01T08:28:37.432Z,77.35
2023-03-01T08:29:37.812Z,77.12
2023-03-01T08:30:38.364Z,77.04
2023-03-01T08:31:36.751Z,77.20
2023-03-01T08:32:37.017Z,77.29
2023-03-01T08:33:36.807Z,77.14
2023-03-01T08:34:37.446Z,76.88
2023-03-01T08:35:37.991Z,76.54
2023-03-01T08:36:36.605Z,76.48
2023-03-01T08:37:36.458Z,76.68
2023-03-01T08:38:36.909Z,76.61
2023-03-01T08:39:36.244Z,76.31
2023-03-01T08:40:36.018Z,76.39
2023-03-01T08:41:35.706Z,76.53
2023-03-01T08:47:32.984Z,76.12
2023-03-01T08:48:37.210Z,76.19
2023-03-01T08:49:32.280Z,75.99
2023-03-01T08:50:37.262Z,75.93
2023-03-01T08:51:31.521Z,75.67
2023-03-01T08:52:37.176Z,75.43
2023-03-01T08:53:31.845Z,75.30
2023-03-01T08:54:32.250Z,75.18
2023-03-01T08:55:31.487Z,75.39
2023-03-01T08:56:37.535Z,75.37
2023-03-01T08:57:32.145Z,75.02
2023-03-01T08:58:32.606Z,60
2023-03-01T08:59:32.654Z,74.99
2023-03-01T09:00:39.151Z,74.92
2023-03-01T09:01:33.328Z,74.90
2023-03-01T09:02:41.048Z,74.69
2023-03-01T09:03:32.493Z,75.11
2023-03-01T09:04:40.401Z,75.09
2023-03-01T09:05:32.682Z,74.55
2023-03-01T09:06:40.625Z,74.50
2023-03-01T09:07:32.679Z,74.16
2023-03-01T09:09:33.077Z,74.25
2023-03-01T09:11:32.150Z,74.26
2023-03-01T09:12:32.412Z,74.23
2023-03-01T09:13:33.734Z,74.24
2023-03-01T09:14:32.914Z,74.21
2023-03-01T09:15:33.520Z,74.17
2023-03-01T09:16:33.154Z,73.93
2023-03-01T09:17:32.600Z,73.92
2023-03-01T09:19:32.752Z,73.61
2023-03-01T09:20:37.882Z,73.60
2023-03-01T09:21:49.984Z,73.76
2023-03-01T09:23:32.582Z,73.43
2023-03-01T09:24:37.459Z,73.42
2023-03-01T09:25:32.487Z,73.54
2023-03-01T09:27:32.342Z,73.65
2023-03-01T09:28:42.224Z,73.59
2023-03-01T09:29:31.555Z,73.46
2023-03-01T09:31:32.098Z,73.32
2023-03-01T09:32:53.445Z,73.36
2023-03-01T09:33:33.085Z,73.37
2023-03-01T09:35:33.473Z,73.31
2023-03-01T09:37:32.284Z,73.20
2023-03-01T09:39:33.297Z,73.18
2023-03-01T09:41:32.073Z,73.20
2023-03-01T09:42:32.556Z,73.25
2023-03-01T09:43:33.066Z,73.20
2023-03-01T09:45:33.062Z,73.27
2023-03-01T09:47:32.298Z,73.30
2023-03-01T09:49:33.114Z,73.19
2023-03-01T09:50:32.686Z,73.31
2023-03-01T09:51:32.356Z,73.33
2023-03-01T09:52:32.656Z,73.17
2023-03-01T09:53:32.719Z,73.09
2023-03-01T09:55:32.909Z,73.02
2023-03-01T09:56:33.107Z,72.98
2023-03-01T09:57:32.446Z,72.95
2023-03-01T09:59:35.485Z,72.94
2023-03-01T10:00:33.693Z,72.78
2023-03-01T10:01:33.447Z,72.77
2023-03-01T10:03:32.939Z,72.56
2023-03-01T10:04:32.980Z,72.38
2023-03-01T10:05:32.404Z,72.32
2023-03-01T10:06:47.385Z,72.23
2023-03-01T10:07:32.745Z,72.30
2023-03-01T10:08:32.341Z,72.30
2023-03-01T10:09:32.535Z,72.27
2023-03-01T10:11:35.191Z,72.22
2023-03-01T10:12:32.149Z,72.06
2023-03-01T10:13:32.826Z,72.07
2023-03-01T10:14:33.568Z,71.96
2023-03-01T10:15:33.372Z,71.95
2023-03-01T10:16:32.528Z,71.99
2023-03-01T10:17:33.091Z,71.90
2023-03-01T10:18:32.414Z,71.78
2023-03-01T10:19:32.391Z,71.76
2023-03-01T10:21:33.069Z,71.76
2023-03-01T10:22:33.281Z,71.97
2023-03-01T10:23:33.834Z,72.33
2023-03-01T10:24:32.570Z,71.91
2023-03-01T10:25:32.791Z,71.44
2023-03-01T10:26:32.628Z,71.61
2023-03-01T10:27:32.294Z,71.09
2023-03-01T10:29:32.326Z,71.16
2023-03-01T10:31:32.603Z,70.94
2023-03-01T10:32:32.716Z,70.79
2023-03-01T10:33:32.458Z,70.80
2023-03-01T10:35:33.987Z,70.83
2023-03-01T10:37:32.507Z,70.65
2023-03-01T10:39:34.448Z,70.58
2023-03-01T10:40:32.758Z,70.52
2023-03-01T10:41:35.431Z,70.60
2023-03-01T10:42:35.500Z,70.48
2023-03-01T10:43:36.069Z,70.28
2023-03-01T10:44:35.753Z,70.28
2023-03-01T10:45:34.979Z,70.34
2023-03-01T10:46:36.399Z,70.35
2023-03-01T10:47:37.126Z,70.26
2023-03-01T10:48:36.181Z,70.31
2023-03-01T10:49:37.357Z,70.35
2023-03-01T10:50:36.258Z,70.34
2023-03-01T10:51:36.693Z,70.26
2023-03-01T10:52:35.881Z,70.22
2023-03-01T10:53:36.498Z,70.29
2023-03-01T10:54:36.877Z,70.30
2023-03-01T10:55:36.586Z,70.24
2023-03-01T10:56:36.965Z,70.42
2023-03-01T10:57:36.674Z,70.30
2023-03-01T10:58:36.008Z,70.25
2023-03-01T10:59:36.412Z,70.40
2023-03-01T11:00:37.601Z,70.58
2023-03-01T11:01:38.833Z,70.71
2023-03-01T11:02:40.043Z,70.58
2023-03-01T11:03:38.086Z,70.44
2023-03-01T11:04:38.608Z,70.25
2023-03-01T11:05:39.207Z,70.16
2023-03-01T11:06:36.977Z,70.22
2023-03-01T11:07:37.675Z,70.19
2023-03-01T11:08:38.485Z,70.19
2023-03-01T11:09:36.074Z,70.21
2023-03-01T11:10:36.802Z,70.12
2023-03-01T11:11:35.815Z,70.13
2023-03-01T11:12:36.049Z,70.23
2023-03-01T11:13:38.340Z,70.31
2023-03-01T11:14:41.112Z,69.96
2023-03-01T11:15:36.831Z,69.80
2023-03-01T11:16:37.268Z,69.48
2023-03-01T11:17:47.961Z,69.36
2023-03-01T11:18:48.322Z,69.26
2023-03-01T11:19:36.688Z,69.14
2023-03-01T11:20:38.274Z,68.88
2023-03-01T11:21:35.907Z,69.03
2023-03-01T11:22:36.594Z,69.21
2023-03-01T11:23:41.209Z,69.41
2023-03-01T11:24:35.894Z,69.54
2023-03-01T11:25:37.210Z,69.59
2023-03-01T11:26:37.587Z,69.33
2023-03-01T11:27:43.056Z,69.04
2023-03-01T11:28:36.791Z,68.88
2023-03-01T11:29:47.869Z,68.90
2023-03-01T11:30:37.289Z,68.93
2023-03-01T11:31:39.048Z,68.85
2023-03-01T11:32:35.782Z,68.80
2023-03-01T11:33:36.700Z,68.71
2023-03-01T11:34:36.318Z,68.68
2023-03-01T11:35:36.165Z,68.48
2023-03-01T11:36:36.799Z,68.23
2023-03-01T11:37:37.497Z,67.86
2023-03-01T11:39:36.388Z,68.05
2023-03-01T11:40:38.365Z,68.09
2023-03-01T11:41:37.195Z,68.17
2023-03-01T11:42:36.350Z,68.15
2023-03-01T11:43:51.032Z,68.01
2023-03-01T11:44:37.027Z,67.92
2023-03-01T11:45:36.284Z,67.93
2023-03-01T11:46:36.010Z,67.78
2023-03-01T11:47:36.040Z,67.59
2023-03-01T11:48:48.864Z,67.54
2023-03-01T11:49:35.951Z,67.41
2023-03-01T11:50:37.521Z,67.37
2023-03-01T11:51:37.033Z,67.28
2023-03-01T11:52:36.184Z,66.80
2023-03-01T11:53:37.003Z,66.70
2023-03-01T11:54:36.386Z,66.55
2023-03-01T11:55:42.495Z,66.54
2023-03-01T11:56:37.524Z,66.59
2023-03-01T11:57:43.831Z,66.64
2023-03-01T11:58:35.508Z,66.56
2023-03-01T11:59:36.763Z,66.55
2023-03-01T12:00:37.188Z,66.58
2023-03-01T12:01:56.537Z,66.70
2023-03-01T12:02:37.190Z,66.71
2023-03-01T12:03:36.326Z,66.68
2023-03-01T12:04:37.046Z,66.60
2023-03-01T12:05:43.884Z,66.42
2023-03-01T12:06:37.442Z,66.25
2023-03-01T12:07:36.291Z,66.21
2023-03-01T12:08:36.449Z,66.24
2023-03-01T12:09:57.763Z,66.23
2023-03-01T12:11:36.021Z,66.28
2023-03-01T12:12:35.814Z,66.35
2023-03-01T12:13:38.714Z,66.33
2023-03-01T12:14:36.269Z,66.25
2023-03-01T12:15:50.852Z,66.37
2023-03-01T12:16:52.423Z,66.39
2023-03-01T12:17:36.804Z,66.37
2023-03-01T12:18:36.107Z,66.35
2023-03-01T12:19:35.338Z,66.38
2023-03-01T12:20:35.806Z,66.44
2023-03-01T12:21:35.811Z,66.55
2023-03-01T12:22:36.504Z,66.65
2023-03-01T12:23:36.190Z,66.76
2023-03-01T12:24:37.056Z,66.65
2023-03-01T12:25:50.323Z,66.27
2023-03-01T12:26:38.272Z,65.98
2023-03-01T12:27:36.224Z,65.99
2023-03-01T12:28:36.597Z,66.07
2023-03-01T12:29:36.702Z,66.03
2023-03-01T12:30:36.566Z,65.77
2023-03-01T12:31:36.661Z,65.75
2023-03-01T12:32:36.676Z,65.61
2023-03-01T12:33:37.379Z,65.80
2023-03-01T12:34:36.444Z,65.84
2023-03-01T12:35:36.560Z,66.05
2023-03-01T12:36:37.287Z,66.31
2023-03-01T12:37:36.615Z,66.37
2023-03-01T12:38:36.078Z,66.38
2023-03-01T12:39:36.285Z,66.62
2023-03-01T12:40:36.898Z,66.73
2023-03-01T12:41:36.672Z,66.92
2023-03-01T12:42:36.759Z,66.56
2023-03-01T12:43:37.438Z,66.35
2023-03-01T12:44:36.334Z,66.50
2023-03-01T12:45:37.670Z,66.25
2023-03-01T12:46:36.853Z,66.03
2023-03-01T12:47:38.042Z,65.69
2023-03-01T12:48:37.211Z,65.30
2023-03-01T12:49:36.164Z,65.25
2023-03-01T12:50:36.948Z,65.30
2023-03-01T12:51:36.622Z,65.65
2023-03-01T12:52:36.871Z,65.98
2023-03-01T12:53:36.409Z,66.28
2023-03-01T12:54:37.014Z,66.62
2023-03-01T12:55:37.244Z,65.91
2023-03-01T12:56:36.139Z,65.31
2023-03-01T12:57:36.345Z,65.30
2023-03-01T12:58:49.062Z,64.71
2023-03-01T12:59:37.942Z,64.48
2023-03-01T13:00:39.557Z,63.68
2023-03-01T13:01:38.122Z,62.86
2023-03-01T13:02:36.791Z,62.65
2023-03-01T13:03:36.388Z,62.53
2023-03-01T13:04:38.152Z,62.69
2023-03-01T13:05:36.613Z,62.40
2023-03-01T13:06:43.189Z,61.81
2023-03-01T13:07:38.158Z,61.12
2023-03-01T13:08:38.152Z,60.79
2023-03-01T13:10:38.151Z,60.72
2023-03-01T13:11:36.839Z,60.77
2023-03-01T13:12:37.745Z,60.81
2023-03-01T13:13:37.950Z,60.72
2023-03-01T13:14:36.391Z,60.78
2023-03-01T13:15:37.235Z,60.95
2023-03-01T13:16:36.800Z,61.35
2023-03-01T13:17:36.649Z,61.53
2023-03-01T13:18:36.783Z,61.65
2023-03-01T13:19:37.053Z,61.23
2023-03-01T13:20:36.249Z,61.17
2023-03-01T13:21:35.802Z,61.02
2023-03-01T13:22:49.784Z,61.40
2023-03-01T13:23:36.921Z,61.31
2023-03-01T13:24:37.535Z,61.11
2023-03-01T13:25:45.281Z,60.90
2023-03-01T13:26:35.944Z,60.66